Time;durP1;ratioP1;P1;durP2;ratioP2;P2;SDS_P1;SDS_P2;PMS_P1;PMS_P2;Temp;Humidity;BMP_temperature;BMP_pressure;BME280_temperature;BME280_humidity;BME280_pressure;Samples;Min_cycle;Max_cycle;Signal;HPM_P1;HPM_P2
2024/01/10 00:01:18;;;;;;;;;;;;;;;-8.10;70.75;102712.78;4899065;29;19955;-73
2024/01/10 00:03:43;;;;;;;;;;;;;;;-8.04;70.57;102727.50;4897718;29;20019;-72
2024/01/10 00:06:11;;;;;;;;;;;;;;;-8.04;71.44;102724.03;4897462;29;19966;-72
2024/01/10 00:11:17;;;;;;;;;;;;;;;-8.04;71.79;102713.56;4979067;23;19939;-73
2024/01/10 00:14:13;;;;;;;;;;;;;;;-8.07;72.47;102710.13;4900244;29;19924;-73
2024/01/10 00:16:57;;;;;;;;;;;;;;;-8.13;72.70;102706.75;4916528;29;19916;-73
2024/01/10 00:19:34;;;;;;;;;;;;;;;-8.14;72.86;102700.69;4900534;29;20493;-73
2024/01/10 00:22:14;;;;;;;;;;;;;;;-8.23;74.08;102700.84;4898999;29;20014;-73
2024/01/10 00:24:54;;;;;;;;;;;;;;;-8.26;74.00;102704.41;4899500;29;19923;-73
2024/01/10 00:27:54;;;;;;;;;;;;;;;-8.42;74.60;102698.56;4897468;29;20010;-73
2024/01/10 00:30:40;;;;;;;;;;;;;;;-8.45;74.80;102692.56;4893482;29;20042;-73
2024/01/10 00:33:11;;;;;;;;;;;;;;;-8.44;75.60;102687.28;4896076;29;19923;-73
2024/01/10 00:36:13;;;;;;;;;;;;;;;-8.50;74.99;102691.81;4897523;29;19924;-73
2024/01/10 00:38:54;;;;;;;;;;;;;;;-8.50;75.17;102689.19;4896025;29;19931;-72
2024/01/10 00:44:21;;;;;;;;;;;;;;;-8.48;76.51;102687.41;4912204;29;20407;-74
2024/01/10 00:46:46;;;;;;;;;;;;;;;-8.59;76.33;102679.78;4914641;29;19990;-73
2024/01/10 00:49:12;;;;;;;;;;;;;;;-8.62;76.92;102680.69;4898967;29;19927;-73
2024/01/10 00:51:37;;;;;;;;;;;;;;;-8.66;78.44;102678.19;4899734;29;19931;-72
2024/01/10 00:54:02;;;;;;;;;;;;;;;-8.62;77.69;102669.38;4963981;23;19927;-72
2024/01/10 00:56:27;;;;;;;;;;;;;;;-8.59;77.66;102674.53;4898141;29;19958;-73
2024/01/10 00:58:57;;;;;;;;;;;;;;;-8.55;77.80;102671.00;4897273;29;20035;-73
2024/01/10 01:01:24;;;;;;;;;;;;;;;-8.59;78.38;102669.31;4897374;29;19927;-73
2024/01/10 01:03:51;;;;;;;;;;;;;;;-8.59;78.65;102661.50;4898453;29;20287;-73
2024/01/10 01:06:16;;;;;;;;;;;;;;;-8.58;78.03;102660.59;4899372;29;20053;-73
2024/01/10 01:08:42;;;;;;;;;;;;;;;-8.56;78.36;102664.06;4899966;29;19923;-73
2024/01/10 01:11:07;;;;;;;;;;;;;;;-8.60;78.23;102662.38;4902735;29;19975;-73
2024/01/10 01:13:32;;;;;;;;;;;;;;;-8.62;78.48;102661.53;4915217;29;19962;-73
2024/01/10 01:15:57;;;;;;;;;;;;;;;-8.57;79.05;102659.72;4910577;29;20460;-73
2024/01/10 01:18:23;;;;;;;;;;;;;;;-8.60;78.31;102665.00;4898882;29;21474;-72
2024/01/10 01:20:49;;;;;;;;;;;;;;;-8.57;79.49;102668.44;4898836;29;19947;-72
2024/01/10 01:23:15;;;;;;;;;;;;;;;-8.51;78.38;102671.78;4897061;29;20011;-73
2024/01/10 01:25:40;;;;;;;;;;;;;;;-8.52;77.95;102668.34;4898733;29;19923;-72
2024/01/10 01:28:05;;;;;;;;;;;;;;;-8.56;78.53;102669.28;4897606;29;20299;-73
2024/01/10 01:30:32;;;;;;;;;;;;;;;-8.59;79.32;102669.31;4896670;29;19970;-72
2024/01/10 01:32:57;;;;;;;;;;;;;;;-8.63;78.89;102668.53;4896145;29;19924;-73
2024/01/10 01:35:23;;;;;;;;;;;;;;;-8.63;78.94;102665.03;4896434;29;19986;-72
2024/01/10 01:37:48;;;;;;;;;;;;;;;-8.61;78.96;102668.50;4896221;29;20543;-73
2024/01/10 01:40:14;;;;;;;;;;;;;;;-8.68;78.89;102670.34;4895760;29;19944;-73
2024/01/10 01:42:39;;;;;;;;;;;;;;;-8.69;79.68;102663.41;4896012;29;20010;-72
2024/01/10 01:45:07;;;;;;;;;;;;;;;-8.75;79.81;102674.81;4895781;29;19927;-73
2024/01/10 01:47:32;;;;;;;;;;;;;;;-8.81;78.70;102669.69;4896733;29;19979;-73
2024/01/10 01:50:00;;;;;;;;;;;;;;;-8.80;79.49;102666.19;4878617;29;19928;-73
2024/01/10 01:52:25;;;;;;;;;;;;;;;-8.85;79.90;102665.44;4879656;29;20335;-73
2024/01/10 01:54:51;;;;;;;;;;;;;;;-8.84;80.02;102659.34;4896732;29;20022;-73
2024/01/10 01:57:21;;;;;;;;;;;;;;;-8.88;81.00;102649.81;4878315;29;20018;-73
2024/01/10 01:59:47;;;;;;;;;;;;;;;-8.92;81.52;102662.06;4874849;29;19924;-72
2024/01/10 02:02:12;;;;;;;;;;;;;;;-8.94;81.70;102652.53;4875894;29;20064;-73
2024/01/10 02:04:37;;;;;;;;;;;;;;;-9.00;82.29;102649.13;4895720;29;19924;-73
2024/01/10 02:07:02;;;;;;;;;;;;;;;-9.00;81.57;102643.06;4896205;29;19967;-73
2024/01/10 02:09:29;;;;;;;;;;;;;;;-8.94;82.45;102644.69;4896418;29;19923;-74
2024/01/10 02:11:54;;;;;;;;;;;;;;;-9.01;81.65;102644.81;4894742;29;20055;-73
2024/01/10 02:14:19;;;;;;;;;;;;;;;-9.08;82.16;102645.78;4879788;29;20400;-73
2024/01/10 02:16:48;;;;;;;;;;;;;;;-9.05;83.67;102640.53;4879821;29;19927;-74
2024/01/10 02:19:19;;;;;;;;;;;;;;;-8.95;82.24;102632.53;4895317;29;20026;-74
2024/01/10 02:21:45;;;;;;;;;;;;;;;-8.89;82.56;102629.84;4896548;29;19955;-73
2024/01/10 02:24:10;;;;;;;;;;;;;;;-8.94;82.50;102632.53;4892101;29;20002;-74
2024/01/10 02:26:35;;;;;;;;;;;;;;;-8.95;81.67;102637.75;4894654;29;20006;-73
2024/01/10 02:29:00;;;;;;;;;;;;;;;-8.91;81.97;102632.44;4897450;29;19924;-74
2024/01/10 02:31:27;;;;;;;;;;;;;;;-8.91;82.99;102636.81;4899984;29;19928;-74
2024/01/10 02:33:52;;;;;;;;;;;;;;;-8.90;82.69;102617.66;4898943;29;19919;-75
2024/01/10 02:36:17;;;;;;;;;;;;;;;-8.89;81.50;102625.47;4896511;29;20061;-74
2024/01/10 02:38:42;;;;;;;;;;;;;;;-8.90;81.55;102615.06;4900834;29;20014;-74
2024/01/10 02:41:08;;;;;;;;;;;;;;;-8.92;82.99;102609.00;4899165;29;19967;-74
2024/01/10 02:43:33;;;;;;;;;;;;;;;-8.91;83.05;102613.34;4899357;29;20023;-74
2024/01/10 02:45:59;;;;;;;;;;;;;;;-8.90;83.41;102612.44;4900172;29;19920;-74
2024/01/10 02:48:24;;;;;;;;;;;;;;;-8.92;83.49;102612.50;4881375;29;19927;-74
2024/01/10 02:50:50;;;;;;;;;;;;;;;-8.94;82.40;102609.03;4899741;29;19930;-73
2024/01/10 02:53:15;;;;;;;;;;;;;;;-8.89;83.54;102615.03;4900610;29;20010;-73
2024/01/10 02:55:43;;;;;;;;;;;;;;;-8.91;83.27;102615.94;4898470;29;19924;-72
2024/01/10 02:58:08;;;;;;;;;;;;;;;-8.96;83.41;102618.63;4899269;29;20380;-75
2024/01/10 03:00:33;;;;;;;;;;;;;;;-9.02;84.18;102614.41;4895741;29;19931;-72
2024/01/10 03:02:58;;;;;;;;;;;;;;;-9.04;83.51;102604.84;4898417;29;19931;-73
2024/01/10 03:05:24;;;;;;;;;;;;;;;-9.10;83.38;102611.03;4898862;29;19982;-73
2024/01/10 03:07:49;;;;;;;;;;;;;;;-9.14;83.87;102610.25;4899404;29;19959;-73
2024/01/10 03:10:14;;;;;;;;;;;;;;;-9.11;84.87;102598.03;4899355;29;19979;-72
2024/01/10 03:12:40;;;;;;;;;;;;;;;-9.12;84.50;102596.31;4899537;29;19923;-72
2024/01/10 03:15:06;;;;;;;;;;;;;;;-9.17;85.17;102598.97;4897842;29;19966;-72
2024/01/10 03:17:33;;;;;;;;;;;;;;;-9.18;85.40;102592.06;4899663;29;19966;-72
2024/01/10 03:19:58;;;;;;;;;;;;;;;-9.14;85.41;102585.88;4899578;29;19930;-74
2024/01/10 03:22:24;;;;;;;;;;;;;;;-9.06;85.43;102584.00;4899116;29;19927;-73
2024/01/10 03:24:49;;;;;;;;;;;;;;;-9.06;85.17;102581.41;4900234;29;20022;-73
2024/01/10 03:27:14;;;;;;;;;;;;;;;-9.03;85.12;102585.69;4898896;29;19966;-75
2024/01/10 03:29:40;;;;;;;;;;;;;;;-9.00;84.16;102583.88;4898825;29;19955;-72
2024/01/10 03:32:05;;;;;;;;;;;;;;;-9.01;84.07;102586.53;4901345;29;20643;-73
2024/01/10 03:34:33;;;;;;;;;;;;;;;-8.99;84.08;102577.78;4909676;29;19931;-73
2024/01/10 03:36:59;;;;;;;;;;;;;;;-8.96;84.73;102578.63;4895432;23;19935;-72
2024/01/10 03:39:24;;;;;;;;;;;;;;;-8.95;84.14;102580.34;4900071;29;19923;-73
2024/01/10 03:50:55;;;;;;;;;;;;;;;-8.89;82.95;102580.25;4895357;29;19930;-73
2024/01/10 03:53:24;;;;;;;;;;;;;;;-8.93;83.32;102574.22;4899078;29;20399;-73
2024/01/10 03:55:56;;;;;;;;;;;;;;;-8.84;82.67;102576.66;4899187;29;19923;-73
2024/01/10 03:58:27;;;;;;;;;;;;;;;-8.82;82.23;102571.41;4908228;29;19908;-73
2024/01/10 04:00:52;;;;;;;;;;;;;;;-8.91;82.05;102564.59;4918999;29;19976;-73
2024/01/10 04:03:18;;;;;;;;;;;;;;;-8.96;82.29;102576.00;4900980;29;19924;-73
2024/01/10 04:18:51;;;;;;;;;;;;;;;-8.92;82.21;102572.47;5082119;23;19928;-72
2024/01/10 04:24:07;;;;;;;;;;;;;;;-8.91;83.39;102574.19;5112365;23;20315;-73
2024/01/10 04:26:47;;;;;;;;;;;;;;;-8.87;83.46;102581.09;4903481;29;19911;-73
2024/01/10 04:29:19;;;;;;;;;;;;;;;-8.93;83.86;102575.97;4902954;29;20287;-72
2024/01/10 04:31:50;;;;;;;;;;;;;;;-8.91;84.14;102577.66;4905292;29;19924;-73
2024/01/10 04:34:15;;;;;;;;;;;;;;;-8.95;84.55;102577.72;4882062;29;19932;-73
2024/01/10 04:36:40;;;;;;;;;;;;;;;-8.93;83.83;102570.75;4899389;29;19923;-74
2024/01/10 04:39:05;;;;;;;;;;;;;;;-8.98;84.99;102576.06;4899826;29;20459;-73
2024/01/10 04:41:31;;;;;;;;;;;;;;;-9.02;86.59;102572.66;4900635;29;19932;-73
2024/01/10 04:43:57;;;;;;;;;;;;;;;-9.01;85.49;102568.28;4901972;29;19963;-72
2024/01/10 04:46:22;;;;;;;;;;;;;;;-9.02;85.83;102566.53;4917900;29;19930;-74
2024/01/10 04:48:47;;;;;;;;;;;;;;;-8.99;86.46;102567.34;4920139;29;19911;-74
2024/01/10 04:51:13;;;;;;;;;;;;;;;-8.96;86.66;102561.22;4902135;29;19923;-73
2024/01/10 04:53:38;;;;;;;;;;;;;;;-8.99;86.34;102566.50;4885848;29;19924;-73
2024/01/10 04:56:03;;;;;;;;;;;;;;;-9.02;85.87;102558.72;4899513;29;19928;-73
2024/01/10 04:58:29;;;;;;;;;;;;;;;-9.03;87.34;102564.81;4896856;29;19929;-73
2024/01/10 05:00:54;;;;;;;;;;;;;;;-9.06;87.81;102560.53;4898781;29;20517;-72
2024/01/10 05:03:20;;;;;;;;;;;;;;;-9.05;87.69;102551.81;4898424;29;19930;-74
2024/01/10 05:05:45;;;;;;;;;;;;;;;-9.11;86.92;102546.69;4897629;29;19927;-73
2024/01/10 05:08:10;;;;;;;;;;;;;;;-9.15;88.45;102545.03;4897382;29;20297;-74
2024/01/10 05:10:41;;;;;;;;;;;;;;;-9.15;87.41;102550.25;4897249;29;19923;-72
2024/01/10 05:13:07;;;;;;;;;;;;;;;-9.16;89.26;102558.97;4897571;29;19920;-71
2024/01/10 05:15:33;;;;;;;;;;;;;;;-9.12;90.35;102547.59;4896460;29;19928;-71
2024/01/10 05:17:58;;;;;;;;;;;;;;;-9.13;90.62;102548.47;4896439;29;20372;-71
2024/01/10 05:20:24;;;;;;;;;;;;;;;-9.19;89.28;102553.81;4896324;29;20010;-72
2024/01/10 05:22:49;;;;;;;;;;;;;;;-9.17;89.17;102546.78;4896210;29;20018;-74
2024/01/10 05:25:18;;;;;;;;;;;;;;;-9.11;89.28;102544.09;4897273;29;19976;-73
2024/01/10 05:27:43;;;;;;;;;;;;;;;-9.09;88.01;102547.53;4896832;29;19962;-73
2024/01/10 05:30:08;;;;;;;;;;;;;;;-9.11;88.56;102540.63;4897424;29;20478;-74
2024/01/10 05:32:34;;;;;;;;;;;;;;;-9.14;88.55;102544.13;4897363;29;20380;-73
2024/01/10 05:34:59;;;;;;;;;;;;;;;-9.14;89.58;102551.97;4897492;29;19974;-73
2024/01/10 05:37:24;;;;;;;;;;;;;;;-9.15;88.59;102552.84;4897583;29;19930;-73
2024/01/10 05:42:15;;;;;;;;;;;;;;;-9.10;87.53;102551.03;4899407;23;19991;-73
2024/01/10 05:44:40;;;;;;;;;;;;;;;-9.07;89.13;102558.81;4898165;29;19927;-73
2024/01/10 05:47:05;;;;;;;;;;;;;;;-9.10;88.71;102558.84;4896978;29;19928;-73
2024/01/10 05:49:33;;;;;;;;;;;;;;;-9.17;89.43;102555.50;4896946;29;19955;-74
2024/01/10 05:51:59;;;;;;;;;;;;;;;-9.14;89.72;102557.19;4897730;29;20384;-74
2024/01/10 05:54:24;;;;;;;;;;;;;;;-9.18;89.69;102547.72;4897441;29;20384;-73
2024/01/10 05:56:49;;;;;;;;;;;;;;;-9.27;89.50;102547.84;4896875;29;19927;-73
2024/01/10 05:59:16;;;;;;;;;;;;;;;-9.33;89.69;102552.28;4897995;29;19924;-73
2024/01/10 06:01:41;;;;;;;;;;;;;;;-9.39;91.17;102570.66;4897569;29;19934;-73
2024/01/10 06:04:07;;;;;;;;;;;;;;;-9.45;91.44;102565.53;4900176;29;19927;-73
2024/01/10 06:06:32;;;;;;;;;;;;;;;-9.42;91.11;102557.66;4901422;29;19919;-73
2024/01/10 06:08:57;;;;;;;;;;;;;;;-9.29;91.15;102553.97;4901445;29;19924;-73
2024/01/10 06:11:22;;;;;;;;;;;;;;;-9.30;90.92;102549.63;4900491;29;20406;-73
2024/01/10 06:13:50;;;;;;;;;;;;;;;-9.31;90.12;102540.09;4901701;29;19970;-73
2024/01/10 06:16:16;;;;;;;;;;;;;;;-9.31;90.54;102540.09;4900827;29;19923;-73
2024/01/10 06:18:41;;;;;;;;;;;;;;;-9.37;89.08;102545.44;4901086;29;19927;-73
2024/01/10 06:21:09;;;;;;;;;;;;;;;-9.42;89.52;102536.81;4901007;29;19970;-73
2024/01/10 06:23:34;;;;;;;;;;;;;;;-9.35;90.04;102538.41;4884286;29;20427;-73
2024/01/10 06:26:00;;;;;;;;;;;;;;;-9.33;89.11;102541.00;4900200;29;19923;-73
2024/01/10 06:28:25;;;;;;;;;;;;;;;-9.32;89.28;102538.34;4901280;29;19931;-73
2024/01/10 06:30:50;;;;;;;;;;;;;;;-9.33;88.75;102531.41;4901550;29;19924;-74
2024/01/10 06:33:15;;;;;;;;;;;;;;;-9.32;88.83;102537.50;4900278;29;19923;-73
2024/01/10 06:35:43;;;;;;;;;;;;;;;-9.35;89.26;102537.56;4901092;29;20040;-72
2024/01/10 06:38:08;;;;;;;;;;;;;;;-9.36;89.16;102534.09;4900339;29;20273;-72
2024/01/10 06:40:33;;;;;;;;;;;;;;;-9.34;88.70;102531.47;4899940;29;19984;-75
2024/01/10 06:42:58;;;;;;;;;;;;;;;-9.38;88.90;102543.69;4898105;29;19939;-72
2024/01/10 06:45:24;;;;;;;;;;;;;;;-9.41;88.04;102543.75;4900734;29;19946;-72
2024/01/10 06:47:55;;;;;;;;;;;;;;;-9.36;88.29;102536.72;4906277;23;19938;-73
2024/01/10 06:50:23;;;;;;;;;;;;;;;-9.41;88.33;102543.75;4901348;29;19958;-73
2024/01/10 06:52:55;;;;;;;;;;;;;;;-9.48;89.51;102532.56;4900821;29;20243;-72
2024/01/10 06:55:24;;;;;;;;;;;;;;;-9.48;88.15;102542.13;4900381;29;19934;-72
2024/01/10 06:57:55;;;;;;;;;;;;;;;-9.40;88.53;102539.38;4901448;29;20384;-73
2024/01/10 07:00:20;;;;;;;;;;;;;;;-9.41;87.96;102538.53;4901582;29;20407;-73
2024/01/10 07:02:49;;;;;;;;;;;;;;;-9.41;87.42;102543.75;4900719;29;20435;-73
2024/01/10 07:05:31;;;;;;;;;;;;;;;-9.40;88.34;102560.22;4953631;23;19935;-73
2024/01/10 07:08:02;;;;;;;;;;;;;;;-9.35;86.79;102550.59;4896658;29;19986;-73
2024/01/10 07:10:28;;;;;;;;;;;;;;;-9.32;86.59;102564.44;4856307;29;19923;-74
2024/01/10 07:12:53;;;;;;;;;;;;;;;-9.34;86.96;102549.72;4905765;29;19954;-74
2024/01/10 07:15:19;;;;;;;;;;;;;;;-9.29;87.13;102553.13;4913011;29;19945;-74
2024/01/10 07:17:45;;;;;;;;;;;;;;;-9.26;87.23;102549.59;4901187;29;20141;-74
2024/01/10 07:20:12;;;;;;;;;;;;;;;-9.30;87.32;102546.19;4902022;29;19927;-73
2024/01/10 07:22:39;;;;;;;;;;;;;;;-9.30;85.92;102544.41;4900010;29;19934;-74
2024/01/10 07:25:05;;;;;;;;;;;;;;;-9.26;85.52;102553.03;4899716;29;19924;-74
2024/01/10 07:27:32;;;;;;;;;;;;;;;-9.23;85.52;102552.16;4900760;29;20320;-74
2024/01/10 07:29:57;;;;;;;;;;;;;;;-9.20;85.51;102546.88;4900334;29;19957;-74
2024/01/10 07:32:23;;;;;;;;;;;;;;;-9.15;85.50;102547.63;4902831;29;19931;-74
2024/01/10 07:34:51;;;;;;;;;;;;;;;-9.13;85.14;102545.88;4900589;29;19979;-72
2024/01/10 07:37:20;;;;;;;;;;;;;;;-9.12;85.76;102539.75;4900105;29;19934;-72
2024/01/10 07:39:45;;;;;;;;;;;;;;;-9.07;85.76;102537.06;4906571;29;19927;-73
2024/01/10 07:42:11;;;;;;;;;;;;;;;-8.99;84.74;102529.97;4954896;23;20003;-72
2024/01/10 07:44:36;;;;;;;;;;;;;;;-8.95;83.40;102531.63;4911607;29;20360;-73
2024/01/10 07:47:02;;;;;;;;;;;;;;;-8.93;83.33;102535.09;4900188;29;20387;-72
2024/01/10 07:49:28;;;;;;;;;;;;;;;-8.91;82.54;102533.28;4899598;29;20304;-73
2024/01/10 07:51:54;;;;;;;;;;;;;;;-8.93;83.26;102550.75;4900148;29;20010;-73
2024/01/10 07:54:19;;;;;;;;;;;;;;;-8.92;82.04;102554.19;4898893;29;19998;-73
2024/01/10 07:56:45;;;;;;;;;;;;;;;-8.94;83.20;102555.97;4862900;29;20249;-73
2024/01/10 07:59:15;;;;;;;;;;;;;;;-8.94;81.96;102566.41;4897325;29;19924;-72
2024/01/10 08:01:41;;;;;;;;;;;;;;;-8.95;82.43;102573.41;4899079;29;20042;-74
2024/01/10 08:04:07;;;;;;;;;;;;;;;-8.98;83.22;102563.84;4898546;29;20395;-74
2024/01/10 08:06:32;;;;;;;;;;;;;;;-9.00;83.96;102557.78;4900359;29;19923;-73
2024/01/10 08:08:58;;;;;;;;;;;;;;;-9.06;83.95;102560.53;4905643;29;19959;-74
2024/01/10 08:11:24;;;;;;;;;;;;;;;-8.98;83.34;102570.84;4921414;29;19954;-74
2024/01/10 08:13:51;;;;;;;;;;;;;;;-8.95;82.39;102562.06;4910497;29;20010;-74
2024/01/10 08:16:18;;;;;;;;;;;;;;;-8.89;82.44;102555.00;4899760;29;19946;-73
2024/01/10 08:18:43;;;;;;;;;;;;;;;-8.78;82.09;102557.41;4898824;29;19923;-74
2024/01/10 08:21:08;;;;;;;;;;;;;;;-8.73;82.43;102558.19;4899669;29;19923;-75
2024/01/10 08:23:34;;;;;;;;;;;;;;;-8.64;80.76;102559.75;4898764;29;19930;-74
2024/01/10 08:25:59;;;;;;;;;;;;;;;-8.58;80.72;102564.00;4897621;29;19946;-74
2024/01/10 08:28:26;;;;;;;;;;;;;;;-8.46;79.18;102560.25;4899136;29;19923;-74
2024/01/10 08:30:51;;;;;;;;;;;;;;;-8.42;78.91;102570.59;4898654;29;19934;-74
2024/01/10 08:33:17;;;;;;;;;;;;;;;-8.35;78.41;102566.09;4899913;29;20029;-74
2024/01/10 08:35:49;;;;;;;;;;;;;;;-8.26;78.23;102567.66;4893293;29;19930;-74
2024/01/10 08:38:14;;;;;;;;;;;;;;;-8.21;77.69;102571.03;4911786;29;19927;-74
2024/01/10 08:40:40;;;;;;;;;;;;;;;-8.18;77.98;102563.16;4920929;29;19959;-74
2024/01/10 08:43:05;;;;;;;;;;;;;;;-8.10;77.58;102571.66;4907808;29;19923;-74
2024/01/10 08:47:57;;;;;;;;;;;;;;;-7.89;75.52;102572.09;4920257;23;19934;-74
2024/01/10 08:50:23;;;;;;;;;;;;;;;-7.90;76.22;102572.13;4899466;29;19928;-74
2024/01/10 08:52:48;;;;;;;;;;;;;;;-7.84;75.26;102564.13;4890356;29;20254;-74
2024/01/10 08:55:14;;;;;;;;;;;;;;;-7.77;75.12;102564.00;4898289;29;19934;-74
2024/01/10 08:57:39;;;;;;;;;;;;;;;-7.74;74.69;102560.44;4898571;29;19923;-74
2024/01/10 09:00:07;;;;;;;;;;;;;;;-7.69;74.19;102552.47;4897204;29;19919;-74
2024/01/10 09:02:33;;;;;;;;;;;;;;;-7.63;73.79;102557.56;4898026;29;19923;-74
2024/01/10 09:04:58;;;;;;;;;;;;;;;-7.52;73.57;102565.16;4898017;29;19924;-74
2024/01/10 09:07:25;;;;;;;;;;;;;;;-7.52;73.44;102552.94;4897685;29;19986;-74
2024/01/10 09:09:50;;;;;;;;;;;;;;;-7.37;72.23;102563.91;4897753;29;20000;-74
2024/01/10 09:12:15;;;;;;;;;;;;;;;-7.27;70.59;102570.66;4898293;29;19931;-74
2024/01/10 09:14:41;;;;;;;;;;;;;;;-7.22;71.05;102568.75;4880342;29;19927;-74
2024/01/10 09:17:07;;;;;;;;;;;;;;;-7.21;70.90;102565.25;4898033;29;19927;-74
2024/01/10 09:19:32;;;;;;;;;;;;;;;-7.14;69.62;102567.72;4898418;29;20373;-74
2024/01/10 09:21:57;;;;;;;;;;;;;;;-7.11;70.03;102560.63;4897332;29;20021;-74
2024/01/10 09:24:23;;;;;;;;;;;;;;;-7.03;69.63;102576.13;4897968;29;20396;-74
2024/01/10 09:26:49;;;;;;;;;;;;;;;-6.98;69.04;102569.03;4896441;29;19928;-74
2024/01/10 09:29:14;;;;;;;;;;;;;;;-6.92;68.72;102571.50;4896238;29;20701;-74
2024/01/10 09:31:40;;;;;;;;;;;;;;;-6.86;68.35;102571.31;4896420;29;19923;-75
2024/01/10 09:34:05;;;;;;;;;;;;;;;-6.80;68.21;102569.44;4897838;29;20331;-74
2024/01/10 09:36:30;;;;;;;;;;;;;;;-6.71;67.27;102577.06;4897579;29;19924;-73
2024/01/10 09:38:55;;;;;;;;;;;;;;;-6.66;66.48;102567.31;4897293;29;19927;-74
2024/01/10 09:41:20;;;;;;;;;;;;;;;-6.64;66.75;102575.97;4896487;29;20010;-74
2024/01/10 09:43:46;;;;;;;;;;;;;;;-6.59;66.63;102568.88;4880703;29;20007;-75
2024/01/10 09:46:11;;;;;;;;;;;;;;;-6.59;66.45;102573.22;4897444;29;20269;-74
2024/01/10 09:48:36;;;;;;;;;;;;;;;-6.57;65.56;102569.69;4896508;29;19927;-73
2024/01/10 09:51:01;;;;;;;;;;;;;;;-6.53;65.82;102561.75;4897387;29;19927;-74
2024/01/10 09:53:27;;;;;;;;;;;;;;;-6.44;65.41;102571.94;4897208;29;20364;-74
2024/01/10 09:55:52;;;;;;;;;;;;;;;-6.41;65.61;102561.38;4896911;29;20372;-74
2024/01/10 09:58:17;;;;;;;;;;;;;;;-6.35;64.45;102552.47;4897228;29;19924;-74
2024/01/10 10:00:43;;;;;;;;;;;;;;;-6.31;65.17;102568.06;4896872;29;19924;-73
2024/01/10 10:03:11;;;;;;;;;;;;;;;-6.20;64.07;102559.03;4879384;29;19959;-74
2024/01/10 10:05:37;;;;;;;;;;;;;;;-6.14;63.82;102561.47;4898072;29;20324;-74
2024/01/10 10:08:02;;;;;;;;;;;;;;;-6.11;63.18;102554.38;4932039;23;19931;-74
2024/01/10 10:10:28;;;;;;;;;;;;;;;-6.09;63.50;102565.66;4879933;29;20391;-74
2024/01/10 10:12:54;;;;;;;;;;;;;;;-5.99;63.17;102557.50;4897342;29;19967;-74
2024/01/10 10:15:21;;;;;;;;;;;;;;;-5.92;63.72;102566.91;4897094;29;19955;-74
2024/01/10 10:17:47;;;;;;;;;;;;;;;-5.81;62.98;102554.31;4896560;29;20416;-74
2024/01/10 10:20:22;;;;;;;;;;;;;;;-5.81;62.56;102564.81;4897935;29;20023;-74
2024/01/10 10:22:58;;;;;;;;;;;;;;;-5.78;61.82;102562.09;4902413;23;19928;-74
2024/01/10 10:25:23;;;;;;;;;;;;;;;-5.72;62.24;102553.16;4889789;29;19928;-74
2024/01/10 10:27:52;;;;;;;;;;;;;;;-5.57;61.35;102561.44;4880560;29;19924;-74
2024/01/10 10:30:17;;;;;;;;;;;;;;;-5.50;61.11;102555.94;4911835;23;19931;-74
2024/01/10 10:32:42;;;;;;;;;;;;;;;-5.46;60.39;102564.56;4896868;29;19930;-74
2024/01/10 10:35:08;;;;;;;;;;;;;;;-5.48;61.41;102555.91;4897583;29;19965;-74
2024/01/10 10:37:34;;;;;;;;;;;;;;;-5.37;60.51;102542.41;4896660;29;19924;-74
2024/01/10 10:39:59;;;;;;;;;;;;;;;-5.31;60.37;102544.84;4896579;29;20018;-74
2024/01/10 10:42:24;;;;;;;;;;;;;;;-5.27;58.65;102542.97;4896942;29;19923;-74
2024/01/10 10:44:49;;;;;;;;;;;;;;;-5.29;59.90;102547.44;4879841;29;19931;-74
2024/01/10 10:47:15;;;;;;;;;;;;;;;-5.22;58.46;102541.03;4879808;29;19972;-74
2024/01/10 10:49:54;;;;;;;;;;;;;;;-5.12;58.42;102552.97;4885115;29;20316;-74
2024/01/10 10:52:19;;;;;;;;;;;;;;;-4.99;57.18;102549.91;4883211;29;20000;-74
2024/01/10 10:54:44;;;;;;;;;;;;;;;-4.95;56.55;102544.50;4902022;29;20380;-74
2024/01/10 10:57:11;;;;;;;;;;;;;;;-4.86;56.45;102545.94;4902693;29;19979;-74
2024/01/10 10:59:37;;;;;;;;;;;;;;;-4.77;56.45;102550.88;4901768;29;19933;-74
2024/01/10 11:02:02;;;;;;;;;;;;;;;-4.70;56.10;102540.13;4903663;29;19923;-74
2024/01/10 11:04:30;;;;;;;;;;;;;;;-4.68;55.82;102543.56;4921986;29;19995;-73
2024/01/10 11:06:55;;;;;;;;;;;;;;;-4.67;56.05;102540.03;4914129;29;19920;-74
2024/01/10 11:09:23;;;;;;;;;;;;;;;-4.66;55.41;102533.84;4901416;29;19975;-74
2024/01/10 11:12:05;;;;;;;;;;;;;;;-4.55;54.94;102538.72;4885425;29;19970;-74
2024/01/10 11:14:49;;;;;;;;;;;;;;;-4.54;54.90;102541.28;4899879;29;19996;-74
2024/01/10 11:17:24;;;;;;;;;;;;;;;-4.49;54.51;102554.25;4899968;29;19924;-74
2024/01/10 11:19:55;;;;;;;;;;;;;;;-4.40;54.95;102553.91;4900044;29;19931;-74
2024/01/10 11:22:29;;;;;;;;;;;;;;;-4.27;54.46;102543.81;4898950;29;19924;-74
2024/01/10 11:24:55;;;;;;;;;;;;;;;-4.23;54.19;102550.63;4900149;29;20004;-74
2024/01/10 11:27:20;;;;;;;;;;;;;;;-4.16;54.16;102544.25;4864594;29;19924;-75
2024/01/10 11:29:45;;;;;;;;;;;;;;;-4.16;53.33;102540.78;4899589;29;19931;-74
2024/01/10 11:32:14;;;;;;;;;;;;;;;-4.07;53.27;102540.41;4907441;29;20037;-74
2024/01/10 11:34:48;;;;;;;;;;;;;;;-3.98;54.19;102526.91;4922144;29;19951;-73
2024/01/10 11:37:13;;;;;;;;;;;;;;;-3.91;54.35;102524.00;4906840;29;19931;-74
2024/01/10 11:39:42;;;;;;;;;;;;;;;-3.88;53.66;102524.75;4900194;29;19924;-74
2024/01/10 11:42:09;;;;;;;;;;;;;;;-3.78;52.99;102527.88;4899443;29;19928;-74
2024/01/10 11:44:35;;;;;;;;;;;;;;;-3.73;53.48;102523.28;4899304;29;19934;-74
2024/01/10 11:47:00;;;;;;;;;;;;;;;-3.69;53.08;102527.50;4899174;29;19923;-74
2024/01/10 11:49:26;;;;;;;;;;;;;;;-3.60;52.87;102534.16;4899135;29;19924;-74
2024/01/10 11:51:58;;;;;;;;;;;;;;;-3.55;52.95;102526.06;4899354;29;19931;-74
2024/01/10 11:54:42;;;;;;;;;;;;;;;-3.46;51.94;102528.34;4899182;29;19924;-74
2024/01/10 11:57:08;;;;;;;;;;;;;;;-3.36;51.62;102531.44;4894403;29;19966;-74
2024/01/10 11:59:33;;;;;;;;;;;;;;;-3.21;50.86;102522.91;4899187;29;19931;-74
2024/01/10 12:01:58;;;;;;;;;;;;;;;-3.03;50.31;102523.03;4914428;29;20000;-74
2024/01/10 12:04:26;;;;;;;;;;;;;;;-2.78;49.55;102528.09;4921683;29;19911;-73
2024/01/10 12:06:51;;;;;;;;;;;;;;;-2.53;48.11;102526.97;4900955;29;19931;-74
2024/01/10 12:09:17;;;;;;;;;;;;;;;-1.57;46.35;102525.09;4881098;29;20340;-74
2024/01/10 12:11:42;;;;;;;;;;;;;;;-0.60;44.53;102523.69;4900037;29;20324;-74
2024/01/10 12:14:08;;;;;;;;;;;;;;;0.12;42.25;102516.22;4898357;29;20410;-74
2024/01/10 12:16:33;;;;;;;;;;;;;;;0.97;41.45;102518.38;4898409;29;19923;-74
2024/01/10 12:18:59;;;;;;;;;;;;;;;1.50;39.99;102521.31;4899541;29;20281;-74
2024/01/10 12:21:27;;;;;;;;;;;;;;;1.99;38.79;102528.94;4899046;29;19923;-73
2024/01/10 12:23:53;;;;;;;;;;;;;;;2.15;37.63;102521.66;4898161;29;19924;-73
2024/01/10 12:26:18;;;;;;;;;;;;;;;2.76;36.51;102526.53;4903553;29;19927;-72
2024/01/10 12:28:53;;;;;;;;;;;;;;;2.53;36.08;102526.25;4901083;29;19934;-72
2024/01/10 12:31:18;;;;;;;;;;;;;;;2.92;36.42;102517.50;4920042;29;19935;-72
2024/01/10 12:33:44;;;;;;;;;;;;;;;3.07;36.13;102519.09;4914943;29;19923;-72
2024/01/10 12:36:09;;;;;;;;;;;;;;;2.94;36.13;102523.56;4899854;29;19926;-72
2024/01/10 12:38:35;;;;;;;;;;;;;;;3.13;35.85;102521.34;4898197;29;19923;-73
2024/01/10 12:41:00;;;;;;;;;;;;;;;3.09;35.82;102521.69;4899021;29;19923;-73
2024/01/10 12:43:26;;;;;;;;;;;;;;;3.25;34.74;102514.31;4898225;29;20287;-73
2024/01/10 12:46:13;;;;;;;;;;;;;;;3.43;33.81;102516.66;4897319;29;19963;-72
2024/01/10 12:48:41;;;;;;;;;;;;;;;3.21;34.34;102522.59;4898985;29;20124;-72
2024/01/10 12:51:06;;;;;;;;;;;;;;;3.39;34.27;102518.66;4890441;29;19927;-73
2024/01/10 12:53:35;;;;;;;;;;;;;;;3.28;34.37;102514.06;4897316;29;20007;-72
2024/01/10 12:56:03;;;;;;;;;;;;;;;1.74;36.05;102518.06;4898843;29;19924;-72
2024/01/10 12:58:29;;;;;;;;;;;;;;;2.61;35.68;102520.44;4897258;29;19924;-72
2024/01/10 13:00:54;;;;;;;;;;;;;;;2.85;35.79;102512.59;4897475;29;19979;-72
2024/01/10 13:03:19;;;;;;;;;;;;;;;3.21;34.93;102511.97;4898211;29;19930;-72
2024/01/10 13:05:45;;;;;;;;;;;;;;;2.94;35.86;102523.56;4881140;29;19919;-73
2024/01/10 13:08:11;;;;;;;;;;;;;;;2.98;35.04;102517.09;4881123;29;19924;-73
2024/01/10 13:10:36;;;;;;;;;;;;;;;2.82;35.62;102514.63;4898669;29;20014;-73
2024/01/10 13:13:02;;;;;;;;;;;;;;;2.72;35.13;102509.94;4896864;29;20019;-74